createdAt,value
2018-02-01T00:00:07.767Z,99044.86
2018-02-01T00:01:10.227Z,99041.20
2018-02-01T00:02:12.687Z,99041.41
2018-02-01T00:03:15.145Z,99035.95
2018-02-01T00:04:17.625Z,99034.69
2018-02-01T00:05:20.104Z,99039.09
2018-02-01T00:06:22.571Z,99035.52
2018-02-01T00:07:25.044Z,99040.64
2018-02-01T00:08:27.510Z,99043.36
2018-02-01T00:09:29.972Z,99046.56
2018-02-01T00:10:32.435Z,99041.06
2018-02-01T00:11:34.908Z,99046.20
2018-02-01T00:12:37.399Z,99045.68
2018-02-01T00:13:39.851Z,99040.77
2018-02-01T00:14:42.325Z,99042.38
2018-02-01T00:15:44.788Z,99040.70
2018-02-01T00:16:47.264Z,99040.70
2018-02-01T00:17:49.810Z,99048.58
2018-02-01T00:18:52.276Z,99049.69
2018-02-01T00:19:54.730Z,99055.12
2018-02-01T00:20:57.183Z,99052.88
2018-02-01T00:21:59.646Z,99055.48
2018-02-01T00:23:02.151Z,99050.69
2018-02-01T00:24:04.610Z,99051.59
2018-02-01T00:25:07.063Z,99054.38
2018-02-01T00:26:09.526Z,99047.78
2018-02-01T00:27:11.991Z,99053.44
2018-02-01T00:28:14.472Z,99048.19
2018-02-01T00:29:16.949Z,99051.08
2018-02-01T00:30:19.429Z,99046.73
2018-02-01T00:31:21.887Z,99043.29
2018-02-01T00:32:24.362Z,99043.75
2018-02-01T00:33:26.837Z,99048.03
2018-02-01T00:34:29.321Z,99050.19
2018-02-01T00:35:31.778Z,99048.17
2018-02-01T00:36:34.256Z,99051.61
2018-02-01T00:37:36.732Z,99047.28
2018-02-01T00:38:39.221Z,99051.19
2018-02-01T00:39:41.675Z,99054.75
2018-02-01T00:40:44.150Z,99051.86
2018-02-01T00:41:46.606Z,99053.44
2018-02-01T00:42:49.067Z,99054.23
2018-02-01T00:43:51.524Z,99058.74
2018-02-01T00:44:53.993Z,99060.56
2018-02-01T00:45:56.471Z,99064.58
2018-02-01T00:46:58.935Z,99061.23
2018-02-01T00:48:01.417Z,99061.55
2018-02-01T00:49:03.881Z,99061.05
2018-02-01T00:50:06.361Z,99057.56
2018-02-01T00:51:08.832Z,99057.01
2018-02-01T00:52:11.295Z,99056.63
2018-02-01T00:53:13.759Z,99053.29
2018-02-01T00:54:16.241Z,99051.36
2018-02-01T00:55:18.701Z,99048.68
2018-02-01T00:56:21.173Z,99051.28
2018-02-01T00:57:23.636Z,99055.27
2018-02-01T00:58:26.117Z,99054.30
2018-02-01T00:59:28.626Z,99057.30
2018-02-01T01:00:31.127Z,99057.66
2018-02-01T01:01:33.607Z,99058.78
2018-02-01T01:02:36.077Z,99057.28
2018-02-01T01:03:38.566Z,99051.84
2018-02-01T01:04:41.043Z,99057.45
2018-02-01T01:05:43.518Z,99055.19
2018-02-01T01:06:45.974Z,99057.09
2018-02-01T01:07:48.430Z,99058.35
2018-02-01T01:08:50.900Z,99045.84
2018-02-01T01:09:53.372Z,99051.93
2018-02-01T01:10:55.826Z,99047.59
2018-02-01T01:11:58.373Z,99049.27
2018-02-01T01:13:00.835Z,99043.87
2018-02-01T01:14:03.295Z,99046.81
2018-02-01T01:15:05.755Z,99042.25
2018-02-01T01:16:08.230Z,99044.02
2018-02-01T01:17:10.719Z,99044.92
2018-02-01T01:18:13.189Z,99046.16
2018-02-01T01:19:15.666Z,99054.77
2018-02-01T01:20:18.123Z,99049.23
2018-02-01T01:21:20.593Z,99050.34
2018-02-01T01:22:23.069Z,99054.61
2018-02-01T01:23:25.550Z,99049.98
2018-02-01T01:24:28.021Z,99059.44
2018-02-01T01:25:30.503Z,99053.94
2018-02-01T01:26:32.962Z,99057.56
2018-02-01T01:27:35.420Z,99051.67
2018-02-01T01:28:37.879Z,99053.69
2018-02-01T01:29:40.357Z,99056.03
2018-02-01T01:30:42.848Z,99058.36
2018-02-01T01:31:45.333Z,99059.78
2018-02-01T01:32:47.813Z,99063.73
2018-02-01T01:33:50.287Z,99065.52
2018-02-01T01:34:52.765Z,99060.22
2018-02-01T01:35:55.223Z,99065.06
2018-02-01T01:36:57.690Z,99068.06
2018-02-01T01:38:00.146Z,99066.75
2018-02-01T01:39:02.623Z,99064.32
2018-02-01T01:40:05.100Z,99067.83
2018-02-01T01:41:07.575Z,99066.23
2018-02-01T01:42:10.052Z,99067.69
2018-02-01T01:43:12.529Z,99074.86
2018-02-01T01:44:14.990Z,99075.38
2018-02-01T01:45:17.454Z,99073.59
2018-02-01T01:46:19.928Z,99075.98
2018-02-01T01:47:22.387Z,99073.88
2018-02-01T01:48:24.877Z,99083.56
2018-02-01T01:49:27.354Z,99077.64
2018-02-01T01:50:29.807Z,99078.66
2018-02-01T01:51:32.279Z,99071.87
2018-02-01T01:52:34.738Z,99070.75
2018-02-01T01:53:37.190Z,99067.20
2018-02-01T01:54:39.664Z,99072.16
2018-02-01T01:55:42.132Z,99073.44
2018-02-01T01:56:44.591Z,99067.76
2018-02-01T01:57:47.076Z,99074.38
2018-02-01T01:58:49.557Z,99071.36
2018-02-01T01:59:52.022Z,99070.02
2018-02-01T02:00:54.486Z,99064.00
2018-02-01T02:01:56.951Z,99063.55
2018-02-01T02:02:59.429Z,99063.81
2018-02-01T02:04:01.882Z,99062.20
2018-02-01T02:05:04.351Z,99061.61
2018-02-01T02:06:06.821Z,99065.98
2018-02-01T02:07:09.301Z,99064.90
2018-02-01T02:08:12.725Z,99065.33
2018-02-01T02:09:15.182Z,99064.16
2018-02-01T02:10:17.638Z,99063.25
2018-02-01T02:11:20.117Z,99059.73
2018-02-01T02:12:22.886Z,99058.55
2018-02-01T02:13:25.347Z,99064.58
2018-02-01T02:14:27.810Z,99054.50
2018-02-01T02:15:30.281Z,99048.02
2018-02-01T02:16:32.750Z,99058.36
2018-02-01T02:17:35.206Z,99055.02
2018-02-01T02:18:37.688Z,99046.65
2018-02-01T02:19:40.142Z,99051.58
2018-02-01T02:20:42.645Z,99054.44
2018-02-01T02:21:45.107Z,99056.52
2018-02-01T02:22:47.585Z,99056.95
2018-02-01T02:23:50.039Z,99056.81
2018-02-01T02:24:52.509Z,99060.21
2018-02-01T02:25:54.971Z,99053.84
2018-02-01T02:26:57.448Z,99053.02
2018-02-01T02:27:59.908Z,99054.02
2018-02-01T02:29:02.381Z,99056.22
2018-02-01T02:30:04.843Z,99057.81
2018-02-01T02:31:07.307Z,99053.36
2018-02-01T02:32:09.785Z,99053.94
2018-02-01T02:33:12.243Z,99054.96
2018-02-01T02:34:14.717Z,99054.13
2018-02-01T02:35:17.191Z,99057.45
2018-02-01T02:36:19.664Z,99059.36
2018-02-01T02:37:22.138Z,99057.88
2018-02-01T02:38:24.613Z,99058.30
2018-02-01T02:39:27.084Z,99054.94
2018-02-01T02:40:29.543Z,99053.33
2018-02-01T02:41:32.017Z,99048.82
2018-02-01T02:42:34.471Z,99050.53
2018-02-01T02:43:36.949Z,99048.52
2018-02-01T02:44:39.416Z,99051.16
2018-02-01T02:45:41.878Z,99045.14
2018-02-01T02:46:44.334Z,99046.52
2018-02-01T02:47:46.790Z,99044.97
2018-02-01T02:48:49.255Z,99040.03
2018-02-01T02:49:51.738Z,99039.69
2018-02-01T02:50:54.219Z,99041.72
2018-02-01T02:51:56.693Z,99039.29
2018-02-01T02:52:59.146Z,99036.18
2018-02-01T02:54:01.625Z,99038.95
2018-02-01T02:55:04.096Z,99030.90
2018-02-01T02:56:06.554Z,99031.44
2018-02-01T02:57:09.029Z,99037.86
2018-02-01T02:58:11.538Z,99037.27
2018-02-01T02:59:13.996Z,99032.95
2018-02-01T03:00:16.451Z,99031.08
2018-02-01T03:01:18.916Z,99033.59
2018-02-01T03:02:21.384Z,99032.98
2018-02-01T03:03:23.842Z,99035.70
2018-02-01T03:04:26.302Z,99033.27
2018-02-01T03:05:28.777Z,99035.19
2018-02-01T03:06:31.244Z,99034.02
2018-02-01T03:07:33.698Z,99028.91
2018-02-01T03:08:36.159Z,99032.02
2018-02-01T03:09:38.620Z,99023.86
2018-02-01T03:10:41.096Z,99024.20
2018-02-01T03:11:43.558Z,99024.20
2018-02-01T03:12:46.029Z,99021.09
2018-02-01T03:13:48.493Z,99019.46
2018-02-01T03:14:50.961Z,99023.05
2018-02-01T03:15:53.415Z,99022.89
2018-02-01T03:16:55.874Z,99020.34
2018-02-01T03:17:58.395Z,99017.35
2018-02-01T03:19:00.926Z,99021.39
2018-02-01T03:20:03.386Z,99022.17
2018-02-01T03:21:05.839Z,99020.69
2018-02-01T03:22:08.318Z,99024.37
2018-02-01T03:23:10.788Z,99018.00
2018-02-01T03:24:13.246Z,99021.08
2018-02-01T03:25:15.739Z,99020.38
2018-02-01T03:26:18.209Z,99021.56
2018-02-01T03:27:20.689Z,99017.69
2018-02-01T03:28:23.157Z,99023.26
2018-02-01T03:29:25.629Z,99017.09
2018-02-01T03:30:28.105Z,99013.75
2018-02-01T03:31:30.569Z,99023.17
2018-02-01T03:32:33.041Z,99022.45
2018-02-01T03:33:35.498Z,99019.60
2018-02-01T03:34:37.961Z,99013.13
2018-02-01T03:35:40.436Z,99018.52
2018-02-01T03:36:42.917Z,99022.43
2018-02-01T03:37:45.379Z,99018.77
2018-02-01T03:38:47.933Z,99013.64
2018-02-01T03:39:50.392Z,99016.41
2018-02-01T03:40:52.843Z,99016.84
2018-02-01T03:41:55.314Z,99013.24
2018-02-01T03:42:57.771Z,99009.73
2018-02-01T03:44:00.226Z,99015.44
2018-02-01T03:45:02.698Z,99010.90
2018-02-01T03:46:05.170Z,99014.58
2018-02-01T03:47:07.644Z,99013.89
2018-02-01T03:48:10.100Z,99011.33
2018-02-01T03:49:12.569Z,99020.03
2018-02-01T03:50:15.045Z,99015.92
2018-02-01T03:51:17.508Z,99016.41
2018-02-01T03:52:19.965Z,99019.61
2018-02-01T03:53:22.432Z,99015.50
2018-02-01T03:54:24.895Z,99007.28
2018-02-01T03:55:27.376Z,99019.52
2018-02-01T03:56:29.848Z,99016.78
2018-02-01T03:57:32.303Z,99016.98
2018-02-01T03:58:34.763Z,99015.44
2018-02-01T03:59:37.245Z,99018.35
2018-02-01T04:00:39.748Z,99011.50
2018-02-01T04:01:42.216Z,99016.52
2018-02-01T04:02:44.689Z,99011.50
2018-02-01T04:03:47.152Z,99007.82
2018-02-01T04:04:49.606Z,99007.79
2018-02-01T04:05:52.063Z,99004.34
2018-02-01T04:06:54.520Z,99006.39
2018-02-01T04:07:56.989Z,99004.80
2018-02-01T04:08:59.461Z,99013.13
2018-02-01T04:10:01.916Z,99006.68
2018-02-01T04:11:04.367Z,99004.52
2018-02-01T04:12:06.837Z,99003.34
2018-02-01T04:13:09.291Z,99001.34
2018-02-01T04:14:11.761Z,99002.28
2018-02-01T04:15:14.219Z,99005.42
2018-02-01T04:16:16.684Z,99004.80
2018-02-01T04:17:19.154Z,99007.39
2018-02-01T04:18:21.632Z,99009.36
2018-02-01T04:19:24.104Z,99010.39
2018-02-01T04:20:26.598Z,99012.33
2018-02-01T04:21:29.081Z,99010.87
2018-02-01T04:22:31.538Z,99012.31
2018-02-01T04:23:33.998Z,99016.91
2018-02-01T04:24:36.468Z,99008.22
2018-02-01T04:25:38.942Z,99011.33
2018-02-01T04:26:41.420Z,99005.20
2018-02-01T04:27:43.889Z,99006.36
2018-02-01T04:28:46.359Z,99008.48
2018-02-01T04:29:48.811Z,99009.36
2018-02-01T04:30:51.267Z,99006.62
2018-02-01T04:31:53.760Z,99008.88
2018-02-01T04:32:56.214Z,99003.52
2018-02-01T04:33:58.672Z,99008.84
2018-02-01T04:35:01.157Z,99009.80
2018-02-01T04:36:03.662Z,99010.13
2018-02-01T04:37:06.137Z,99013.75
2018-02-01T04:38:08.617Z,99005.94
2018-02-01T04:39:11.109Z,99015.38
2018-02-01T04:40:13.577Z,99016.63
2018-02-01T04:41:16.048Z,99014.12
2018-02-01T04:42:18.516Z,99008.22
2018-02-01T04:43:21.003Z,99010.64
2018-02-01T04:44:23.467Z,99011.15
2018-02-01T04:45:25.946Z,99006.10
2018-02-01T04:46:28.419Z,99005.88
2018-02-01T04:47:30.875Z,99005.88
2018-02-01T04:48:33.369Z,99011.25
2018-02-01T04:49:35.846Z,99012.11
2018-02-01T04:50:38.303Z,99007.48
2018-02-01T04:51:40.758Z,99014.02
2018-02-01T04:52:43.214Z,99013.66
2018-02-01T04:53:45.674Z,99005.02
2018-02-01T04:54:48.138Z,99008.17
2018-02-01T04:55:50.603Z,99008.83
2018-02-01T04:56:53.078Z,99011.42
2018-02-01T04:57:55.554Z,99012.09
2018-02-01T04:58:58.049Z,99006.59
2018-02-01T05:00:00.525Z,99009.41
2018-02-01T05:01:03.003Z,99014.70
2018-02-01T05:02:05.458Z,99014.82
2018-02-01T05:03:07.920Z,99016.58
2018-02-01T05:04:10.393Z,99014.67
2018-02-01T05:05:12.872Z,99012.66
2018-02-01T05:06:15.345Z,99012.63
2018-02-01T05:07:17.873Z,99015.50
2018-02-01T05:08:20.349Z,99018.71
2018-02-01T05:09:22.820Z,99013.73
2018-02-01T05:10:25.297Z,99008.70
2018-02-01T05:11:27.767Z,99012.56
2018-02-01T05:12:30.230Z,99009.08
2018-02-01T05:13:32.709Z,99012.26
2018-02-01T05:14:35.203Z,99003.54
2018-02-01T05:15:37.658Z,99004.03
2018-02-01T05:16:40.124Z,99004.72
2018-02-01T05:17:42.611Z,99010.61
2018-02-01T05:18:45.081Z,99005.59
2018-02-01T05:19:47.634Z,99003.95
2018-02-01T05:20:50.090Z,99001.70
2018-02-01T05:21:52.570Z,98998.03
2018-02-01T05:22:55.038Z,99008.84
2018-02-01T05:23:57.522Z,99003.41
2018-02-01T05:25:00.002Z,99003.75
2018-02-01T05:26:02.508Z,99003.88
2018-02-01T05:27:04.986Z,99005.70
2018-02-01T05:28:07.464Z,99003.81
2018-02-01T05:29:09.933Z,99007.09
2018-02-01T05:30:12.412Z,98999.97
2018-02-01T05:31:14.871Z,99001.03
2018-02-01T05:32:17.343Z,98997.33
2018-02-01T05:33:19.798Z,99000.17
2018-02-01T05:34:22.259Z,99000.91
2018-02-01T05:35:24.752Z,98997.39
2018-02-01T05:36:27.257Z,98996.81
2018-02-01T05:37:29.743Z,98997.76
2018-02-01T05:38:32.204Z,98997.20
2018-02-01T05:39:34.784Z,99000.80
2018-02-01T05:40:37.325Z,98998.55
2018-02-01T05:41:39.783Z,98997.88
2018-02-01T05:42:42.341Z,98994.14
2018-02-01T05:43:44.834Z,98997.38
2018-02-01T05:44:47.314Z,98996.03
2018-02-01T05:45:49.785Z,98991.61
2018-02-01T05:46:52.265Z,98998.17
2018-02-01T05:47:54.733Z,98997.81
2018-02-01T05:48:57.209Z,98997.45
2018-02-01T05:49:59.676Z,98998.03
2018-02-01T05:51:02.153Z,99001.23
2018-02-01T05:52:04.602Z,98996.46
2018-02-01T05:53:07.073Z,98998.19
2018-02-01T05:54:09.531Z,98995.73
2018-02-01T05:55:12.041Z,99001.61
2018-02-01T05:56:14.519Z,98996.75
2018-02-01T05:57:16.998Z,98993.84
2018-02-01T05:58:19.483Z,98993.72
2018-02-01T05:59:21.981Z,98990.34
2018-02-01T06:00:24.443Z,98993.13
2018-02-01T06:01:26.899Z,98985.01
2018-02-01T06:02:29.369Z,98993.49
2018-02-01T06:03:31.836Z,98994.33
2018-02-01T06:04:34.365Z,98994.00
2018-02-01T06:05:36.827Z,98995.98
2018-02-01T06:06:39.282Z,98997.16
2018-02-01T06:07:41.746Z,98994.03
2018-02-01T06:08:44.221Z,98998.44
2018-02-01T06:09:46.695Z,99004.53
2018-02-01T06:10:49.153Z,98995.53
2018-02-01T06:11:51.630Z,99001.93
2018-02-01T06:12:54.102Z,99002.39
2018-02-01T06:13:56.559Z,98995.47
2018-02-01T06:14:59.013Z,99000.37
2018-02-01T06:16:01.485Z,98994.19
2018-02-01T06:17:03.939Z,98995.17
2018-02-01T06:18:06.400Z,98999.52
2018-02-01T06:19:08.874Z,98998.48
2018-02-01T06:20:11.339Z,99002.94
2018-02-01T06:21:13.809Z,98994.16
2018-02-01T06:22:16.267Z,98996.09
2018-02-01T06:23:18.723Z,99001.47
2018-02-01T06:24:21.222Z,98996.64
2018-02-01T06:25:23.687Z,98999.64
2018-02-01T06:26:26.152Z,99003.73
2018-02-01T06:27:28.671Z,99006.33
2018-02-01T06:28:31.145Z,99003.91
2018-02-01T06:29:33.642Z,99002.63
2018-02-01T06:30:36.141Z,99002.08
2018-02-01T06:31:38.622Z,99005.66
2018-02-01T06:32:41.089Z,99004.01
2018-02-01T06:33:43.564Z,99006.97
2018-02-01T06:34:46.037Z,99001.63
2018-02-01T06:35:48.513Z,99001.69
2018-02-01T06:36:51.012Z,99002.23
2018-02-01T06:37:53.489Z,99008.23
2018-02-01T06:38:55.946Z,99002.84
2018-02-01T06:39:58.400Z,99002.27
2018-02-01T06:41:00.870Z,99002.36
2018-02-01T06:42:03.351Z,99008.34
2018-02-01T06:43:05.946Z,99001.72
2018-02-01T06:44:08.418Z,99014.06
2018-02-01T06:45:10.890Z,99007.95
2018-02-01T06:46:13.352Z,99008.78
2018-02-01T06:47:15.806Z,99010.13
2018-02-01T06:48:18.267Z,99007.34
2018-02-01T06:49:20.735Z,99011.10
2018-02-01T06:50:23.208Z,99008.50
2018-02-01T06:51:25.672Z,99004.95
2018-02-01T06:52:28.178Z,99007.25
2018-02-01T06:53:30.751Z,99012.59
2018-02-01T06:54:33.325Z,99010.09
2018-02-01T06:55:35.778Z,99015.98
2018-02-01T06:56:38.249Z,99013.20
2018-02-01T06:57:40.716Z,99015.28
2018-02-01T06:58:43.188Z,99020.02
2018-02-01T06:59:45.665Z,99021.41
2018-02-01T07:01:04.720Z,99026.88
2018-02-01T07:02:07.193Z,99024.98
2018-02-01T07:03:09.662Z,99023.08
2018-02-01T07:04:13.026Z,99020.45
2018-02-01T07:05:15.501Z,99018.74
2018-02-01T07:06:17.963Z,99022.46
2018-02-01T07:07:20.415Z,99022.30
2018-02-01T07:08:22.885Z,99019.03
2018-02-01T07:09:25.369Z,99016.92
2018-02-01T07:10:27.822Z,99021.93
2018-02-01T07:11:30.279Z,99019.79
2018-02-01T07:12:32.750Z,99021.93
2018-02-01T07:13:35.219Z,99027.64
2018-02-01T07:14:37.671Z,99022.50
2018-02-01T07:15:40.122Z,99025.08
2018-02-01T07:16:42.603Z,99023.41
2018-02-01T07:17:45.083Z,99030.14
2018-02-01T07:18:47.557Z,99027.08
2018-02-01T07:19:50.019Z,99031.42
2018-02-01T07:20:52.498Z,99024.47
2018-02-01T07:21:54.961Z,99024.31
2018-02-01T07:22:57.418Z,99029.22
2018-02-01T07:23:59.889Z,99032.84
2018-02-01T07:25:02.351Z,99030.39
2018-02-01T07:26:04.819Z,99041.02
2018-02-01T07:27:07.374Z,99040.13
2018-02-01T07:28:09.895Z,99039.27
2018-02-01T07:29:12.365Z,99038.53
2018-02-01T07:30:14.827Z,99041.15
2018-02-01T07:31:17.312Z,99034.88
2018-02-01T07:32:19.813Z,99037.25
2018-02-01T07:33:22.297Z,99040.57
2018-02-01T07:34:24.770Z,99039.69
2018-02-01T07:35:27.244Z,99039.06
2018-02-01T07:36:29.707Z,99041.81
2018-02-01T07:37:32.276Z,99043.44
2018-02-01T07:38:34.753Z,99043.75
2018-02-01T07:39:37.235Z,99042.05
2018-02-01T07:40:39.724Z,99044.76
2018-02-01T07:41:42.198Z,99044.03
2018-02-01T07:42:44.663Z,99038.83
2018-02-01T07:43:47.135Z,99046.28
2018-02-01T07:44:49.600Z,99041.60
2018-02-01T07:45:52.449Z,99043.79
2018-02-01T07:47:00.584Z,99042.67
2018-02-01T07:48:03.069Z,99041.28
2018-02-01T07:49:05.550Z,99038.50
2018-02-01T07:50:08.014Z,99038.33
2018-02-01T07:51:10.483Z,99044.30
2018-02-01T07:52:12.959Z,99041.72
2018-02-01T07:53:15.426Z,99042.83
2018-02-01T07:54:17.878Z,99040.59
2018-02-01T07:55:20.353Z,99039.19
2018-02-01T07:56:22.966Z,99037.75
2018-02-01T07:57:25.524Z,99035.98
2018-02-01T07:58:27.980Z,99043.53
2018-02-01T07:59:30.437Z,99035.67
2018-02-01T08:00:32.905Z,99040.20
2018-02-01T08:01:35.387Z,99040.87
2018-02-01T08:02:37.861Z,99046.87
2018-02-01T08:03:40.331Z,99046.16
2018-02-01T08:04:42.800Z,99041.78
2018-02-01T08:05:45.284Z,99035.36
2018-02-01T08:06:47.771Z,99041.41
2018-02-01T08:07:50.230Z,99043.95
2018-02-01T08:08:52.716Z,99038.58
2018-02-01T08:09:55.188Z,99035.69
2018-02-01T08:10:57.655Z,99037.24
2018-02-01T08:12:00.190Z,99042.67
2018-02-01T08:13:02.686Z,99045.58
2018-02-01T08:14:05.157Z,99040.28
2018-02-01T08:15:07.637Z,99037.50
2018-02-01T08:16:10.099Z,99032.33
2018-02-01T08:17:12.589Z,99034.08
2018-02-01T08:18:15.066Z,99037.87
2018-02-01T08:19:17.542Z,99036.78
2018-02-01T08:20:20.013Z,99033.08
2018-02-01T08:21:22.479Z,99031.06
2018-02-01T08:23:26.737Z,99029.96
2018-02-01T08:24:29.209Z,99027.77
2018-02-01T08:25:31.758Z,99032.87
2018-02-01T08:26:34.234Z,99033.78
2018-02-01T08:27:36.713Z,99033.86
2018-02-01T08:28:39.194Z,99033.64
2018-02-01T08:29:41.667Z,99034.45
2018-02-01T08:30:44.132Z,99034.91
2018-02-01T08:31:46.602Z,99030.92
2018-02-01T08:32:49.082Z,99034.42
2018-02-01T08:33:51.595Z,99029.29
2018-02-01T08:34:54.059Z,99027.53
2018-02-01T08:35:56.518Z,99021.80
2018-02-01T08:36:58.995Z,99024.55
2018-02-01T08:38:01.494Z,99024.39
2018-02-01T08:39:03.965Z,99027.15
2018-02-01T08:40:06.444Z,99020.34
2018-02-01T08:41:08.958Z,99017.97
2018-02-01T08:42:11.418Z,99021.38
2018-02-01T08:43:13.903Z,99022.65
2018-02-01T08:44:16.376Z,99023.72
2018-02-01T08:45:18.849Z,99023.28
2018-02-01T08:46:21.333Z,99022.90
2018-02-01T08:47:23.803Z,99024.84
2018-02-01T08:48:26.297Z,99023.48
2018-02-01T08:49:28.777Z,99019.66
2018-02-01T08:50:31.236Z,99013.89
2018-02-01T08:51:33.704Z,99016.77
2018-02-01T08:52:36.167Z,99010.37
2018-02-01T08:53:38.677Z,99010.61
2018-02-01T08:54:41.135Z,99011.52
2018-02-01T08:55:43.611Z,99013.73
2018-02-01T08:56:46.078Z,99016.27
2018-02-01T08:57:48.558Z,99018.70
2018-02-01T08:58:51.072Z,99016.02
2018-02-01T08:59:53.526Z,99011.32
2018-02-01T09:00:55.982Z,99018.11
2018-02-01T09:01:58.482Z,99010.77
2018-02-01T09:03:00.957Z,99008.79
2018-02-01T09:04:03.449Z,99018.73
2018-02-01T09:05:05.907Z,99024.55
2018-02-01T09:06:08.420Z,99016.80
2018-02-01T09:07:10.871Z,99025.37
2018-02-01T09:08:13.353Z,99022.03
2018-02-01T09:09:15.864Z,99029.39
2018-02-01T09:10:18.354Z,99031.23
2018-02-01T09:11:20.829Z,99030.54
2018-02-01T09:12:23.301Z,99031.95
2018-02-01T09:13:25.758Z,99026.33
2018-02-01T09:14:28.262Z,99030.46
2018-02-01T09:15:30.718Z,99027.14
2018-02-01T09:16:33.174Z,99026.02
2018-02-01T09:17:35.646Z,99035.04
2018-02-01T09:18:38.125Z,99031.00
2018-02-01T09:19:40.611Z,99032.66
2018-02-01T09:20:43.085Z,99039.70
2018-02-01T09:21:45.539Z,99038.42
2018-02-01T09:22:47.998Z,99035.33
2018-02-01T09:23:50.473Z,99041.00
2018-02-01T09:24:52.970Z,99040.84
2018-02-01T09:25:55.433Z,99040.91
2018-02-01T09:26:57.895Z,99039.46
2018-02-01T09:28:00.363Z,99021.66
2018-02-01T09:29:02.834Z,99038.13
2018-02-01T09:30:05.310Z,99039.88
2018-02-01T09:31:07.767Z,99040.66
2018-02-01T09:32:10.221Z,99041.09
2018-02-01T09:33:12.677Z,99033.78
2018-02-01T09:34:15.134Z,99039.84
2018-02-01T09:35:17.628Z,99044.02
2018-02-01T09:36:20.084Z,99039.77
2018-02-01T09:37:22.556Z,99029.98
2018-02-01T09:38:25.015Z,99035.13
2018-02-01T09:39:27.471Z,99031.98
2018-02-01T09:40:29.951Z,99036.81
2018-02-01T09:41:32.422Z,99024.27
2018-02-01T09:42:34.888Z,99030.66
2018-02-01T09:43:37.452Z,99023.98
2018-02-01T09:44:39.940Z,99031.25
2018-02-01T09:45:42.415Z,99036.22
2018-02-01T09:46:44.871Z,99029.52
2018-02-01T09:47:47.341Z,99037.36
2018-02-01T09:48:49.810Z,99035.09
2018-02-01T09:49:52.281Z,99032.36
2018-02-01T09:50:54.769Z,99030.05
2018-02-01T09:51:57.241Z,99021.43
2018-02-01T09:52:59.717Z,99026.17
2018-02-01T09:54:02.189Z,99031.31
2018-02-01T09:55:04.670Z,99030.05
2018-02-01T09:56:07.215Z,99027.67
2018-02-01T09:57:09.684Z,99024.60
2018-02-01T09:58:12.145Z,99041.70
2018-02-01T09:59:14.663Z,99029.86
2018-02-01T10:00:17.117Z,99033.22
2018-02-01T10:01:19.600Z,99034.82
2018-02-01T10:02:22.291Z,99034.06
2018-02-01T10:03:24.822Z,99032.78
2018-02-01T10:04:27.661Z,99030.48
2018-02-01T10:05:30.341Z,99031.04
2018-02-01T10:06:32.840Z,99037.54
2018-02-01T10:07:35.312Z,99043.47
2018-02-01T10:08:37.767Z,99036.37
2018-02-01T10:09:40.244Z,99039.48
2018-02-01T10:10:42.703Z,99036.86
2018-02-01T10:11:45.197Z,99038.98
2018-02-01T10:12:47.680Z,99042.00
2018-02-01T10:13:50.143Z,99036.52
2018-02-01T10:14:52.613Z,99043.07
2018-02-01T10:15:55.091Z,99041.42
2018-02-01T10:16:57.588Z,99040.04
2018-02-01T10:18:00.069Z,99039.48
2018-02-01T10:19:02.623Z,99030.20
2018-02-01T10:20:05.103Z,99035.20
2018-02-01T10:21:07.573Z,99038.99
2018-02-01T10:22:10.090Z,99036.83
2018-02-01T10:23:12.551Z,99049.20
2018-02-01T10:24:15.041Z,99050.86
2018-02-01T10:25:17.514Z,99037.57
2018-02-01T10:26:19.973Z,99049.59
2018-02-01T10:27:22.478Z,99038.31
2018-02-01T10:28:25.201Z,99043.14
2018-02-01T10:29:27.766Z,99048.20
2018-02-01T10:30:30.417Z,99040.55
2018-02-01T10:31:32.889Z,99040.36
2018-02-01T10:32:35.385Z,99038.50
2018-02-01T10:33:37.857Z,99033.66
2018-02-01T10:34:40.325Z,99037.59
2018-02-01T10:35:42.790Z,99036.20
2018-02-01T10:36:45.251Z,99035.45
2018-02-01T10:37:47.985Z,99041.89
2018-02-01T10:38:50.448Z,99037.51
2018-02-01T10:39:52.929Z,99029.66
2018-02-01T10:40:55.392Z,99034.69
2018-02-01T10:41:57.876Z,99038.56
2018-02-01T10:43:00.473Z,99035.00
2018-02-01T10:44:02.947Z,99030.97
2018-02-01T10:45:05.426Z,99031.01
2018-02-01T10:46:07.891Z,99037.36
2018-02-01T10:47:10.409Z,99026.59
2018-02-01T10:48:13.220Z,99028.48
2018-02-01T10:49:15.695Z,99029.21
2018-02-01T10:50:18.260Z,99028.19
2018-02-01T10:51:20.741Z,99022.23
2018-02-01T10:52:23.216Z,99022.97
2018-02-01T10:53:25.705Z,99023.66
2018-02-01T10:54:28.182Z,99021.44
2018-02-01T10:55:30.647Z,99019.16
2018-02-01T10:56:33.362Z,99021.41
2018-02-01T10:57:35.820Z,99015.50
2018-02-01T10:58:38.363Z,99020.80
2018-02-01T10:59:40.815Z,99017.52
2018-02-01T11:00:43.293Z,99020.52
2018-02-01T11:01:45.765Z,99010.23
2018-02-01T11:02:48.220Z,99014.84
2018-02-01T11:03:50.708Z,99014.70
2018-02-01T11:04:53.181Z,99018.69
2018-02-01T11:05:55.639Z,99023.01
2018-02-01T11:06:58.102Z,99024.34
2018-02-01T11:08:00.563Z,99018.88
2018-02-01T11:09:03.043Z,99019.56
2018-02-01T11:10:05.512Z,99021.62
2018-02-01T11:11:07.985Z,99015.01
2018-02-01T11:12:10.462Z,99014.47
2018-02-01T11:13:12.933Z,99031.59
2018-02-01T11:14:15.434Z,99011.06
2018-02-01T11:15:17.901Z,99007.34
2018-02-01T11:16:20.355Z,99012.11
2018-02-01T11:17:22.834Z,99014.44
2018-02-01T11:18:25.312Z,98998.45
2018-02-01T11:19:27.885Z,98996.00
2018-02-01T11:20:30.371Z,99013.11
2018-02-01T11:21:32.850Z,99002.13
2018-02-01T11:22:35.427Z,99004.45
2018-02-01T11:23:37.928Z,99000.88
2018-02-01T11:24:40.421Z,99004.84
2018-02-01T11:25:42.903Z,99006.12
2018-02-01T11:26:45.374Z,99002.78
2018-02-01T11:27:47.834Z,99000.89
2018-02-01T11:28:50.314Z,99003.78
2018-02-01T11:29:52.796Z,99006.34
2018-02-01T11:30:55.281Z,99006.05
2018-02-01T11:31:57.736Z,99004.70
2018-02-01T11:33:00.212Z,99005.38
2018-02-01T11:34:02.665Z,99002.19
2018-02-01T11:35:05.162Z,99002.92
2018-02-01T11:36:07.705Z,99005.22
2018-02-01T11:37:10.173Z,99000.16
2018-02-01T11:38:12.649Z,99000.98
2018-02-01T11:39:15.110Z,98998.19
2018-02-01T11:40:17.612Z,98997.59
2018-02-01T11:41:20.092Z,98996.47
2018-02-01T11:42:22.563Z,99001.77
2018-02-01T11:43:25.020Z,98988.48
2018-02-01T11:44:27.505Z,98992.22
2018-02-01T11:45:29.991Z,98983.95
2018-02-01T11:46:32.452Z,98982.88
2018-02-01T11:47:34.915Z,98984.63
2018-02-01T11:48:37.372Z,98990.04
2018-02-01T11:49:39.871Z,98998.98
2018-02-01T11:50:42.380Z,98997.18
2018-02-01T11:51:44.835Z,98987.71
2018-02-01T11:52:47.295Z,98987.92
2018-02-01T11:53:49.771Z,98987.92
2018-02-01T11:54:52.241Z,98977.31
2018-02-01T11:55:54.732Z,98980.72
2018-02-01T11:56:57.602Z,98987.71
2018-02-01T11:58:00.093Z,98984.71
2018-02-01T11:59:02.617Z,98980.09
2018-02-01T12:00:05.075Z,98980.33
2018-02-01T12:01:07.573Z,98971.10
2018-02-01T12:02:10.041Z,98970.39
2018-02-01T12:03:12.501Z,98976.69
2018-02-01T12:04:14.978Z,98976.09
2018-02-01T12:05:17.484Z,98979.92
2018-02-01T12:06:19.986Z,98972.00
2018-02-01T12:07:22.463Z,98975.67
2018-02-01T12:08:24.925Z,98976.45
2018-02-01T12:09:27.401Z,98973.50
2018-02-01T12:10:29.870Z,98969.88
2018-02-01T12:11:32.347Z,98970.66
2018-02-01T12:12:34.815Z,98968.34
2018-02-01T12:13:37.267Z,98971.36
2018-02-01T12:14:39.731Z,98971.42